CCM726 LFRS-LFKJ
Flight info
| Callsign | CCM726 |
|---|---|
| Flight time | 1h 24m |
| Altitude | 37000 |
| Route | LUGEN UM184 TUPAR DCT DIDRU DCT ADATU DCT LERGA DCT TOZOT DCT OTROT DCT RETNO DCT KOLON DCT OMARD M623 VAREK |
| Aircraft | A21N/M-SDE2E3FGIJ1LORWXY/HB1 |
Departure
| Time | 2026-04-20 20:13 |
|---|---|
| Airport | Nantes Atlantique Airport (LFRS) |
Arrival
| Time | 2026-04-20 21:37 |
|---|---|
| Airport | Ajaccio Napoléon Bonaparte airport (LFKJ) |
| Time | Latitude | Longitude | Altitude | Speed | Heading |
|---|---|---|---|---|---|
| 2026-04-20 19:45 | 47.15862 | -1.60293 | 103 ft | 0 kts | 117° |
| 2026-04-20 19:56 | 47.15868 | -1.60309 | 101 ft | 4 kts | 118° |
| 2026-04-20 19:56 | 47.15883 | -1.60340 | 102 ft | 4 kts | 143° |
| 2026-04-20 19:57 | 47.15906 | -1.60353 | 99 ft | 4 kts | 186° |
| 2026-04-20 19:57 | 47.15918 | -1.60349 | 98 ft | 2 kts | 207° |
| 2026-04-20 20:00 | 47.15917 | -1.60349 | 99 ft | 1 kts | 207° |
| 2026-04-20 20:01 | 47.15901 | -1.60361 | 100 ft | 4 kts | 207° |
| 2026-04-20 20:01 | 47.15862 | -1.60391 | 101 ft | 8 kts | 207° |
| 2026-04-20 20:01 | 47.15802 | -1.60438 | 102 ft | 11 kts | 208° |
| 2026-04-20 20:01 | 47.15722 | -1.60500 | 103 ft | 14 kts | 208° |
| 2026-04-20 20:02 | 47.15627 | -1.60574 | 105 ft | 17 kts | 204° |
| 2026-04-20 20:02 | 47.15515 | -1.60656 | 103 ft | 19 kts | 207° |
| 2026-04-20 20:02 | 47.15395 | -1.60748 | 102 ft | 20 kts | 207° |
| 2026-04-20 20:02 | 47.15266 | -1.60846 | 103 ft | 21 kts | 207° |
| 2026-04-20 20:03 | 47.15129 | -1.60951 | 104 ft | 23 kts | 207° |
| 2026-04-20 20:03 | 47.14986 | -1.61060 | 102 ft | 24 kts | 207° |
| 2026-04-20 20:03 | 47.14838 | -1.61173 | 101 ft | 25 kts | 207° |
| 2026-04-20 20:03 | 47.14682 | -1.61292 | 101 ft | 26 kts | 207° |
| 2026-04-20 20:04 | 47.14521 | -1.61415 | 97 ft | 26 kts | 207° |
| 2026-04-20 20:04 | 47.14355 | -1.61540 | 91 ft | 27 kts | 207° |
| 2026-04-20 20:04 | 47.14200 | -1.61657 | 88 ft | 1 kts | 207° |
| 2026-04-20 20:04 | 47.14197 | -1.61659 | 87 ft | 3 kts | 210° |
| 2026-04-20 20:05 | 47.14178 | -1.61683 | 88 ft | 4 kts | 243° |
| 2026-04-20 20:05 | 47.14178 | -1.61684 | 89 ft | 0 kts | 250° |
| 2026-04-20 20:10 | 47.14174 | -1.61700 | 66 ft | 4 kts | 249° |
| 2026-04-20 20:10 | 47.14159 | -1.61757 | 87 ft | 8 kts | 249° |
| 2026-04-20 20:10 | 47.14146 | -1.61851 | 88 ft | 12 kts | 276° |
| 2026-04-20 20:11 | 47.14192 | -1.61928 | 86 ft | 0 kts | 24° |
| 2026-04-20 20:12 | 47.14307 | -1.61841 | 90 ft | 52 kts | 27° |
| 2026-04-20 20:12 | 47.14829 | -1.61444 | 102 ft | 115 kts | 28° |
| 2026-04-20 20:12 | 47.15697 | -1.60782 | 151 ft | 156 kts | 28° |
| 2026-04-20 20:13 | 47.17356 | -1.59083 | 1407 ft | 143 kts | 70° |
| 2026-04-20 20:13 | 47.17429 | -1.57644 | 1922 ft | 153 kts | 96° |
| 2026-04-20 20:13 | 47.16941 | -1.56154 | 2343 ft | 178 kts | 127° |
| 2026-04-20 20:13 | 47.15795 | -1.55136 | 2821 ft | 209 kts | 149° |
| 2026-04-20 20:14 | 47.14384 | -1.54203 | 3242 ft | 235 kts | 150° |
| 2026-04-20 20:14 | 47.12845 | -1.53161 | 3864 ft | 250 kts | 151° |
| 2026-04-20 20:14 | 47.11240 | -1.52065 | 4640 ft | 259 kts | 153° |
| 2026-04-20 20:14 | 47.09588 | -1.50935 | 5436 ft | 265 kts | 153° |
| 2026-04-20 20:15 | 47.07922 | -1.49793 | 6241 ft | 270 kts | 153° |
| 2026-04-20 20:15 | 47.06299 | -1.48351 | 7021 ft | 274 kts | 140° |
| 2026-04-20 20:15 | 47.04848 | -1.46498 | 7836 ft | 278 kts | 137° |
| 2026-04-20 20:15 | 47.03399 | -1.44575 | 8672 ft | 282 kts | 137° |
| 2026-04-20 20:16 | 47.01932 | -1.42632 | 9509 ft | 287 kts | 138° |
| 2026-04-20 20:16 | 47.00433 | -1.40656 | 10248 ft | 296 kts | 139° |
| 2026-04-20 20:16 | 46.98840 | -1.38570 | 10620 ft | 317 kts | 139° |
| 2026-04-20 20:16 | 46.97162 | -1.36378 | 10978 ft | 336 kts | 139° |
| 2026-04-20 20:17 | 46.95388 | -1.34062 | 11607 ft | 345 kts | 140° |
| 2026-04-20 20:17 | 46.93575 | -1.31707 | 12340 ft | 351 kts | 140° |
| 2026-04-20 20:17 | 46.91732 | -1.29313 | 13076 ft | 357 kts | 140° |
| 2026-04-20 20:17 | 46.89856 | -1.26877 | 13789 ft | 364 kts | 140° |
| 2026-04-20 20:18 | 46.87945 | -1.24397 | 14432 ft | 370 kts | 141° |
| 2026-04-20 20:18 | 46.86008 | -1.21890 | 15106 ft | 375 kts | 140° |
| 2026-04-20 20:18 | 46.84071 | -1.19378 | 15757 ft | 379 kts | 140° |
| 2026-04-20 20:18 | 46.82084 | -1.16799 | 16428 ft | 384 kts | 140° |
| 2026-04-20 20:19 | 46.80079 | -1.14194 | 17074 ft | 388 kts | 141° |
| 2026-04-20 20:19 | 46.78052 | -1.11563 | 17738 ft | 393 kts | 141° |
| 2026-04-20 20:19 | 46.75993 | -1.08899 | 18375 ft | 397 kts | 141° |
| 2026-04-20 20:19 | 46.73912 | -1.06209 | 18923 ft | 402 kts | 141° |
| 2026-04-20 20:20 | 46.71809 | -1.03495 | 19463 ft | 406 kts | 141° |
| 2026-04-20 20:20 | 46.69679 | -1.00748 | 20013 ft | 410 kts | 141° |
| 2026-04-20 20:20 | 46.67536 | -0.97980 | 20546 ft | 414 kts | 141° |
| 2026-04-20 20:20 | 46.65361 | -0.95186 | 21080 ft | 419 kts | 141° |
| 2026-04-20 20:21 | 46.63172 | -0.92371 | 21590 ft | 423 kts | 141° |
| 2026-04-20 20:21 | 46.60958 | -0.89524 | 22104 ft | 427 kts | 141° |
| 2026-04-20 20:21 | 46.58721 | -0.86656 | 22620 ft | 431 kts | 142° |
| 2026-04-20 20:21 | 46.56461 | -0.83752 | 23096 ft | 435 kts | 141° |
| 2026-04-20 20:22 | 46.54959 | -0.81814 | 23445 ft | 438 kts | 141° |
| 2026-04-20 20:22 | 46.51900 | -0.77866 | 24055 ft | 442 kts | 141° |
| 2026-04-20 20:22 | 46.49591 | -0.74889 | 24490 ft | 445 kts | 141° |
| 2026-04-20 20:22 | 46.47267 | -0.71903 | 24927 ft | 448 kts | 141° |
| 2026-04-20 20:23 | 46.44925 | -0.68889 | 25342 ft | 452 kts | 141° |
| 2026-04-20 20:23 | 46.42770 | -0.65538 | 25744 ft | 459 kts | 128° |
| 2026-04-20 20:23 | 46.41134 | -0.61547 | 26147 ft | 463 kts | 118° |
| 2026-04-20 20:23 | 46.39681 | -0.57372 | 26535 ft | 466 kts | 117° |
| 2026-04-20 20:24 | 46.38227 | -0.53148 | 26925 ft | 469 kts | 117° |
| 2026-04-20 20:24 | 46.36756 | -0.48912 | 27298 ft | 472 kts | 118° |
| 2026-04-20 20:24 | 46.35260 | -0.44662 | 27672 ft | 474 kts | 118° |
| 2026-04-20 20:24 | 46.33746 | -0.40394 | 28050 ft | 477 kts | 118° |
| 2026-04-20 20:25 | 46.32220 | -0.36122 | 28406 ft | 479 kts | 118° |
| 2026-04-20 20:25 | 46.30705 | -0.31874 | 28744 ft | 482 kts | 118° |
| 2026-04-20 20:25 | 46.29164 | -0.27549 | 29085 ft | 485 kts | 118° |
| 2026-04-20 20:25 | 46.27608 | -0.23196 | 29423 ft | 488 kts | 118° |
| 2026-04-20 20:26 | 46.26045 | -0.18832 | 29755 ft | 490 kts | 118° |
| 2026-04-20 20:26 | 46.24468 | -0.14448 | 30079 ft | 493 kts | 119° |
| 2026-04-20 20:26 | 46.22880 | -0.10044 | 30372 ft | 495 kts | 119° |
| 2026-04-20 20:26 | 46.21288 | -0.05617 | 30674 ft | 497 kts | 118° |
| 2026-04-20 20:27 | 46.19694 | -0.01184 | 30968 ft | 498 kts | 119° |
| 2026-04-20 20:27 | 46.18162 | 0.03324 | 31215 ft | 502 kts | 112° |
| 2026-04-20 20:27 | 46.17052 | 0.08056 | 31469 ft | 504 kts | 107° |
| 2026-04-20 20:27 | 46.16010 | 0.12877 | 31740 ft | 505 kts | 107° |
| 2026-04-20 20:28 | 46.15300 | 0.16147 | 31991 ft | 504 kts | 107° |
| 2026-04-20 20:28 | 46.13918 | 0.22512 | 32507 ft | 501 kts | 107° |
| 2026-04-20 20:28 | 46.12876 | 0.27305 | 32864 ft | 500 kts | 107° |
| 2026-04-20 20:28 | 46.11834 | 0.32099 | 33031 ft | 500 kts | 107° |
| 2026-04-20 20:29 | 46.09739 | 0.41676 | 33044 ft | 500 kts | 107° |
| 2026-04-20 20:29 | 46.07656 | 0.51157 | 33019 ft | 500 kts | 107° |
| 2026-04-20 20:30 | 46.05549 | 0.60692 | 33018 ft | 500 kts | 107° |
| 2026-04-20 20:30 | 46.03433 | 0.70236 | 33018 ft | 500 kts | 107° |
| 2026-04-20 20:31 | 46.01301 | 0.79764 | 33036 ft | 500 kts | 107° |
| 2026-04-20 20:31 | 45.99149 | 0.89303 | 33020 ft | 501 kts | 107° |
| 2026-04-20 20:32 | 45.97001 | 0.98827 | 33023 ft | 501 kts | 107° |
| 2026-04-20 20:32 | 45.94859 | 1.08283 | 33016 ft | 499 kts | 108° |
| 2026-04-20 20:33 | 45.92712 | 1.17777 | 33021 ft | 499 kts | 108° |
| 2026-04-20 20:33 | 45.90550 | 1.27272 | 33026 ft | 500 kts | 108° |
| 2026-04-20 20:34 | 45.88365 | 1.36748 | 33023 ft | 500 kts | 108° |
| 2026-04-20 20:34 | 45.86554 | 1.44632 | 33024 ft | 500 kts | 108° |
| 2026-04-20 20:35 | 45.84360 | 1.54104 | 33025 ft | 500 kts | 108° |
| 2026-04-20 20:35 | 45.82159 | 1.63578 | 33023 ft | 501 kts | 108° |
| 2026-04-20 20:36 | 45.79941 | 1.73069 | 33031 ft | 502 kts | 108° |
| 2026-04-20 20:36 | 45.77742 | 1.82499 | 33030 ft | 502 kts | 108° |
| 2026-04-20 20:37 | 45.75510 | 1.91971 | 33024 ft | 501 kts | 108° |
| 2026-04-20 20:37 | 45.73249 | 2.01399 | 33039 ft | 501 kts | 108° |
| 2026-04-20 20:38 | 45.71002 | 2.10864 | 33039 ft | 501 kts | 108° |
| 2026-04-20 20:38 | 45.68752 | 2.20301 | 33041 ft | 501 kts | 108° |
| 2026-04-20 20:39 | 45.66493 | 2.29747 | 33035 ft | 502 kts | 108° |
| 2026-04-20 20:39 | 45.64224 | 2.39189 | 33041 ft | 502 kts | 108° |
| 2026-04-20 20:40 | 45.61954 | 2.48567 | 33043 ft | 502 kts | 109° |
| 2026-04-20 20:40 | 45.59668 | 2.57995 | 33047 ft | 502 kts | 109° |
| 2026-04-20 20:41 | 45.57376 | 2.67418 | 33052 ft | 502 kts | 109° |
| 2026-04-20 20:41 | 45.55070 | 2.76838 | 33056 ft | 502 kts | 109° |
| 2026-04-20 20:42 | 45.52603 | 2.86143 | 33050 ft | 500 kts | 113° |
| 2026-04-20 20:42 | 45.49889 | 2.95267 | 33056 ft | 500 kts | 113° |
| 2026-04-20 20:43 | 45.47162 | 3.04399 | 33060 ft | 500 kts | 113° |
| 2026-04-20 20:43 | 45.44439 | 3.13459 | 33065 ft | 501 kts | 113° |
| 2026-04-20 20:44 | 45.41683 | 3.22593 | 33057 ft | 502 kts | 114° |
| 2026-04-20 20:44 | 45.38926 | 3.31718 | 33052 ft | 502 kts | 113° |
| 2026-04-20 20:45 | 45.36149 | 3.40831 | 33054 ft | 502 kts | 114° |
| 2026-04-20 20:45 | 45.33368 | 3.49943 | 33053 ft | 502 kts | 114° |
| 2026-04-20 20:46 | 45.30592 | 3.59030 | 33059 ft | 501 kts | 114° |
| 2026-04-20 20:46 | 45.27808 | 3.68105 | 33062 ft | 501 kts | 114° |
| 2026-04-20 20:47 | 45.25212 | 3.77301 | 33041 ft | 501 kts | 106° |
| 2026-04-20 20:47 | 45.23281 | 3.86745 | 33045 ft | 502 kts | 105° |
| 2026-04-20 20:48 | 45.21340 | 3.96269 | 33040 ft | 502 kts | 105° |
| 2026-04-20 20:48 | 45.19385 | 4.05791 | 33048 ft | 502 kts | 105° |
| 2026-04-20 20:49 | 45.17418 | 4.15313 | 33053 ft | 503 kts | 106° |
| 2026-04-20 20:49 | 45.15442 | 4.24828 | 33062 ft | 503 kts | 106° |
| 2026-04-20 20:50 | 45.13473 | 4.34277 | 33054 ft | 503 kts | 106° |
| 2026-04-20 20:50 | 45.11201 | 4.43641 | 33046 ft | 503 kts | 117° |
| 2026-04-20 20:51 | 45.09358 | 4.47824 | 33030 ft | 500 kts | 130° |
| 2026-04-20 20:51 | 45.07130 | 4.51599 | 33047 ft | 498 kts | 134° |
| 2026-04-20 20:51 | 45.02548 | 4.58937 | 33045 ft | 498 kts | 134° |
| 2026-04-20 20:52 | 44.97999 | 4.66317 | 33029 ft | 498 kts | 133° |
| 2026-04-20 20:52 | 44.93453 | 4.73721 | 33022 ft | 498 kts | 133° |
| 2026-04-20 20:53 | 44.88901 | 4.81108 | 32996 ft | 498 kts | 133° |
| 2026-04-20 20:53 | 44.84391 | 4.88407 | 33014 ft | 496 kts | 133° |
| 2026-04-20 20:54 | 44.79848 | 4.95722 | 33028 ft | 496 kts | 134° |
| 2026-04-20 20:54 | 44.75294 | 5.03053 | 33021 ft | 498 kts | 134° |
| 2026-04-20 20:55 | 44.70722 | 5.10385 | 33018 ft | 498 kts | 134° |
| 2026-04-20 20:55 | 44.66154 | 5.17702 | 33015 ft | 498 kts | 134° |
| 2026-04-20 20:56 | 44.61577 | 5.24992 | 33003 ft | 498 kts | 134° |
| 2026-04-20 20:56 | 44.56994 | 5.32285 | 33011 ft | 497 kts | 134° |
| 2026-04-20 20:57 | 44.52412 | 5.39553 | 33000 ft | 498 kts | 134° |
| 2026-04-20 20:57 | 44.47847 | 5.46788 | 32982 ft | 498 kts | 134° |
| 2026-04-20 20:58 | 44.43251 | 5.54032 | 32990 ft | 496 kts | 134° |
| 2026-04-20 20:58 | 44.40958 | 5.57645 | 33091 ft | 497 kts | 134° |
| 2026-04-20 20:58 | 44.38676 | 5.61269 | 33446 ft | 497 kts | 133° |
| 2026-04-20 20:59 | 44.36609 | 5.65145 | 33764 ft | 497 kts | 126° |
| 2026-04-20 20:59 | 44.34667 | 5.69142 | 34038 ft | 497 kts | 126° |
| 2026-04-20 20:59 | 44.32735 | 5.73158 | 34284 ft | 497 kts | 126° |
| 2026-04-20 20:59 | 44.30799 | 5.77166 | 34499 ft | 497 kts | 126° |
| 2026-04-20 21:00 | 44.28857 | 5.81165 | 34731 ft | 497 kts | 126° |
| 2026-04-20 21:00 | 44.26913 | 5.85151 | 34917 ft | 497 kts | 126° |
| 2026-04-20 21:00 | 44.23060 | 5.93046 | 34998 ft | 493 kts | 126° |
| 2026-04-20 21:01 | 44.19187 | 6.00933 | 34968 ft | 492 kts | 126° |
| 2026-04-20 21:01 | 44.15325 | 6.08824 | 34955 ft | 492 kts | 126° |
| 2026-04-20 21:02 | 44.11463 | 6.16688 | 34960 ft | 491 kts | 126° |
| 2026-04-20 21:02 | 44.07595 | 6.24521 | 34962 ft | 491 kts | 126° |
| 2026-04-20 21:03 | 44.03720 | 6.32341 | 34953 ft | 490 kts | 126° |
| 2026-04-20 21:03 | 43.99849 | 6.40140 | 34955 ft | 490 kts | 126° |
| 2026-04-20 21:04 | 43.95970 | 6.47935 | 34968 ft | 492 kts | 126° |
| 2026-04-20 21:04 | 43.92061 | 6.55793 | 34948 ft | 495 kts | 126° |
| 2026-04-20 21:05 | 43.88135 | 6.63638 | 34946 ft | 495 kts | 126° |
| 2026-04-20 21:05 | 43.84230 | 6.71427 | 34948 ft | 495 kts | 127° |
| 2026-04-20 21:06 | 43.80292 | 6.79237 | 34929 ft | 495 kts | 127° |
| 2026-04-20 21:06 | 43.76355 | 6.87059 | 34947 ft | 495 kts | 127° |
| 2026-04-20 21:07 | 43.72278 | 6.94727 | 34937 ft | 493 kts | 135° |
| 2026-04-20 21:07 | 43.67072 | 7.00778 | 34942 ft | 488 kts | 147° |
| 2026-04-20 21:08 | 43.61625 | 7.06365 | 34933 ft | 488 kts | 147° |
| 2026-04-20 21:08 | 43.56236 | 7.11933 | 34932 ft | 487 kts | 147° |
| 2026-04-20 21:09 | 43.50820 | 7.17554 | 34934 ft | 486 kts | 147° |
| 2026-04-20 21:09 | 43.45417 | 7.23156 | 34906 ft | 481 kts | 147° |
| 2026-04-20 21:10 | 43.42766 | 7.25903 | 34730 ft | 474 kts | 147° |
| 2026-04-20 21:10 | 43.40140 | 7.28619 | 34502 ft | 471 kts | 147° |
| 2026-04-20 21:10 | 43.37527 | 7.31319 | 34239 ft | 470 kts | 147° |
| 2026-04-20 21:10 | 43.34918 | 7.34008 | 34002 ft | 468 kts | 147° |
| 2026-04-20 21:11 | 43.32315 | 7.36690 | 33734 ft | 466 kts | 147° |
| 2026-04-20 21:11 | 43.29727 | 7.39353 | 33466 ft | 464 kts | 147° |
| 2026-04-20 21:11 | 43.27151 | 7.42001 | 33188 ft | 462 kts | 147° |
| 2026-04-20 21:11 | 43.24573 | 7.44646 | 32916 ft | 460 kts | 147° |
| 2026-04-20 21:12 | 43.22013 | 7.47267 | 32653 ft | 458 kts | 147° |
| 2026-04-20 21:12 | 43.19469 | 7.49874 | 32388 ft | 456 kts | 147° |
| 2026-04-20 21:12 | 43.16936 | 7.52468 | 32113 ft | 454 kts | 147° |
| 2026-04-20 21:12 | 43.14445 | 7.55011 | 31839 ft | 452 kts | 147° |
| 2026-04-20 21:13 | 43.11926 | 7.57566 | 31578 ft | 449 kts | 148° |
| 2026-04-20 21:13 | 43.09267 | 7.59709 | 31170 ft | 438 kts | 161° |
| 2026-04-20 21:13 | 43.06453 | 7.61218 | 30717 ft | 432 kts | 165° |
| 2026-04-20 21:13 | 43.03626 | 7.62579 | 30255 ft | 429 kts | 166° |
| 2026-04-20 21:14 | 43.00812 | 7.63930 | 29732 ft | 428 kts | 165° |
| 2026-04-20 21:14 | 42.98012 | 7.65294 | 29193 ft | 426 kts | 165° |
| 2026-04-20 21:14 | 42.95229 | 7.66665 | 28672 ft | 424 kts | 165° |
| 2026-04-20 21:14 | 42.92464 | 7.68035 | 28196 ft | 421 kts | 165° |
| 2026-04-20 21:15 | 42.89722 | 7.69393 | 27732 ft | 417 kts | 164° |
| 2026-04-20 21:15 | 42.87005 | 7.70739 | 27285 ft | 414 kts | 164° |
| 2026-04-20 21:15 | 42.84299 | 7.72077 | 26817 ft | 412 kts | 164° |
| 2026-04-20 21:15 | 42.81612 | 7.73407 | 26342 ft | 409 kts | 164° |
| 2026-04-20 21:16 | 42.78935 | 7.74728 | 25893 ft | 407 kts | 164° |
| 2026-04-20 21:16 | 42.76278 | 7.76037 | 25457 ft | 404 kts | 164° |
| 2026-04-20 21:16 | 42.73676 | 7.77319 | 25021 ft | 402 kts | 164° |
| 2026-04-20 21:16 | 42.71048 | 7.78613 | 24549 ft | 401 kts | 164° |
| 2026-04-20 21:17 | 42.68427 | 7.79904 | 24100 ft | 400 kts | 164° |
| 2026-04-20 21:17 | 42.65819 | 7.81185 | 23649 ft | 398 kts | 164° |
| 2026-04-20 21:17 | 42.63213 | 7.82463 | 23138 ft | 397 kts | 164° |
| 2026-04-20 21:17 | 42.60617 | 7.83737 | 22651 ft | 395 kts | 163° |
| 2026-04-20 21:18 | 42.58044 | 7.85000 | 22189 ft | 392 kts | 163° |
| 2026-04-20 21:18 | 42.55483 | 7.86255 | 21718 ft | 390 kts | 163° |
| 2026-04-20 21:18 | 42.52933 | 7.87500 | 21245 ft | 388 kts | 163° |
| 2026-04-20 21:18 | 42.50403 | 7.88734 | 20798 ft | 386 kts | 163° |
| 2026-04-20 21:19 | 42.47885 | 7.89963 | 20377 ft | 383 kts | 163° |
| 2026-04-20 21:19 | 42.45379 | 7.91187 | 19959 ft | 380 kts | 163° |
| 2026-04-20 21:19 | 42.42896 | 7.92401 | 19533 ft | 378 kts | 163° |
| 2026-04-20 21:20 | 42.37994 | 7.94788 | 18749 ft | 375 kts | 163° |
| 2026-04-20 21:20 | 42.35541 | 7.95978 | 18363 ft | 373 kts | 163° |
| 2026-04-20 21:20 | 42.33896 | 7.96776 | 18081 ft | 369 kts | 163° |
| 2026-04-20 21:20 | 42.30813 | 7.98631 | 17512 ft | 366 kts | 147° |
| 2026-04-20 21:21 | 42.28869 | 8.00823 | 17122 ft | 362 kts | 139° |
| 2026-04-20 21:21 | 42.27039 | 8.03132 | 16754 ft | 357 kts | 138° |
| 2026-04-20 21:21 | 42.25240 | 8.05399 | 16403 ft | 351 kts | 139° |
| 2026-04-20 21:21 | 42.23455 | 8.07622 | 16053 ft | 348 kts | 139° |
| 2026-04-20 21:22 | 42.22275 | 8.09078 | 15827 ft | 347 kts | 139° |
| 2026-04-20 21:22 | 42.20486 | 8.11279 | 15482 ft | 347 kts | 139° |
| 2026-04-20 21:22 | 42.18701 | 8.13468 | 15147 ft | 346 kts | 140° |
| 2026-04-20 21:22 | 42.16919 | 8.15649 | 14817 ft | 345 kts | 140° |
| 2026-04-20 21:23 | 42.15140 | 8.17823 | 14483 ft | 345 kts | 140° |
| 2026-04-20 21:23 | 42.13362 | 8.19998 | 14136 ft | 345 kts | 139° |
| 2026-04-20 21:23 | 42.11580 | 8.22172 | 13786 ft | 345 kts | 140° |
| 2026-04-20 21:23 | 42.09799 | 8.24343 | 13391 ft | 345 kts | 140° |
| 2026-04-20 21:24 | 42.08017 | 8.26512 | 13027 ft | 345 kts | 140° |
| 2026-04-20 21:24 | 42.06240 | 8.28674 | 12700 ft | 343 kts | 140° |
| 2026-04-20 21:24 | 42.04495 | 8.30802 | 12376 ft | 342 kts | 140° |
| 2026-04-20 21:24 | 42.02734 | 8.32944 | 12033 ft | 341 kts | 140° |
| 2026-04-20 21:25 | 42.00970 | 8.35082 | 11682 ft | 341 kts | 140° |
| 2026-04-20 21:25 | 41.99210 | 8.37221 | 11325 ft | 341 kts | 140° |
| 2026-04-20 21:25 | 41.97451 | 8.39357 | 10974 ft | 339 kts | 140° |
| 2026-04-20 21:25 | 41.95662 | 8.41374 | 10622 ft | 332 kts | 150° |
| 2026-04-20 21:26 | 41.93582 | 8.42484 | 10258 ft | 314 kts | 176° |
| 2026-04-20 21:26 | 41.91477 | 8.42457 | 9918 ft | 295 kts | 194° |
| 2026-04-20 21:26 | 41.89511 | 8.41833 | 9705 ft | 291 kts | 194° |
| 2026-04-20 21:26 | 41.87475 | 8.41662 | 9485 ft | 293 kts | 185° |
| 2026-04-20 21:27 | 41.85440 | 8.41628 | 9232 ft | 291 kts | 185° |
| 2026-04-20 21:27 | 41.83421 | 8.41560 | 8949 ft | 289 kts | 186° |
| 2026-04-20 21:27 | 41.81417 | 8.41458 | 8658 ft | 288 kts | 186° |
| 2026-04-20 21:27 | 41.79419 | 8.41335 | 8360 ft | 287 kts | 187° |
| 2026-04-20 21:28 | 41.77450 | 8.41202 | 8069 ft | 286 kts | 187° |
| 2026-04-20 21:28 | 41.75465 | 8.41061 | 7773 ft | 285 kts | 187° |
| 2026-04-20 21:28 | 41.73489 | 8.40918 | 7497 ft | 284 kts | 187° |
| 2026-04-20 21:28 | 41.71516 | 8.40773 | 7196 ft | 284 kts | 187° |
| 2026-04-20 21:29 | 41.69541 | 8.40627 | 6891 ft | 284 kts | 187° |
| 2026-04-20 21:29 | 41.67565 | 8.40522 | 6570 ft | 285 kts | 182° |
| 2026-04-20 21:29 | 41.65630 | 8.41057 | 6237 ft | 287 kts | 159° |
| 2026-04-20 21:29 | 41.64017 | 8.42611 | 5905 ft | 289 kts | 133° |
| 2026-04-20 21:30 | 41.62930 | 8.44873 | 5610 ft | 288 kts | 116° |
| 2026-04-20 21:30 | 41.62316 | 8.47381 | 5418 ft | 280 kts | 96° |
| 2026-04-20 21:30 | 41.62544 | 8.49852 | 5393 ft | 260 kts | 64° |
| 2026-04-20 21:30 | 41.63456 | 8.51894 | 5467 ft | 255 kts | 51° |
| 2026-04-20 21:31 | 41.64503 | 8.53806 | 5420 ft | 255 kts | 50° |
| 2026-04-20 21:31 | 41.65550 | 8.55716 | 5456 ft | 255 kts | 51° |
| 2026-04-20 21:31 | 41.66590 | 8.57641 | 5351 ft | 254 kts | 51° |
| 2026-04-20 21:31 | 41.67609 | 8.59571 | 5104 ft | 253 kts | 52° |
| 2026-04-20 21:32 | 41.68616 | 8.61493 | 4796 ft | 252 kts | 52° |
| 2026-04-20 21:32 | 41.69608 | 8.63392 | 4467 ft | 252 kts | 52° |
| 2026-04-20 21:32 | 41.70623 | 8.65338 | 4129 ft | 251 kts | 52° |
| 2026-04-20 21:32 | 41.71706 | 8.67156 | 3798 ft | 248 kts | 39° |
| 2026-04-20 21:33 | 41.73106 | 8.68455 | 3475 ft | 243 kts | 24° |
| 2026-04-20 21:33 | 41.74614 | 8.69389 | 3167 ft | 241 kts | 19° |
| 2026-04-20 21:33 | 41.76139 | 8.70224 | 2979 ft | 232 kts | 19° |
| 2026-04-20 21:33 | 41.77580 | 8.71048 | 2885 ft | 219 kts | 20° |
| 2026-04-20 21:34 | 41.78961 | 8.71886 | 2667 ft | 213 kts | 22° |
| 2026-04-20 21:34 | 41.80245 | 8.72681 | 2476 ft | 196 kts | 22° |
| 2026-04-20 21:34 | 41.81445 | 8.73427 | 2197 ft | 185 kts | 23° |
| 2026-04-20 21:34 | 41.82581 | 8.74133 | 1924 ft | 176 kts | 24° |
| 2026-04-20 21:35 | 41.83663 | 8.74807 | 1676 ft | 166 kts | 24° |
| 2026-04-20 21:35 | 41.84683 | 8.75443 | 1459 ft | 158 kts | 25° |
| 2026-04-20 21:35 | 41.85676 | 8.76061 | 1263 ft | 157 kts | 25° |
| 2026-04-20 21:35 | 41.86655 | 8.76671 | 1046 ft | 149 kts | 26° |
| 2026-04-20 21:36 | 41.87540 | 8.77223 | 843 ft | 136 kts | 27° |
| 2026-04-20 21:36 | 41.88395 | 8.77759 | 635 ft | 135 kts | 26° |
| 2026-04-20 21:36 | 41.89230 | 8.78285 | 528 ft | 132 kts | 26° |
| 2026-04-20 21:36 | 41.90066 | 8.78778 | 365 ft | 132 kts | 25° |
| 2026-04-20 21:37 | 41.90885 | 8.79307 | 150 ft | 130 kts | 26° |
| 2026-04-20 21:37 | 41.91703 | 8.79816 | 26 ft | 125 kts | 26° |
| 2026-04-20 21:37 | 41.92357 | 8.80225 | 26 ft | 62 kts | 24° |
| 2026-04-20 21:37 | 41.92466 | 8.80296 | 27 ft | 10 kts | 25° |
| 2026-04-20 21:38 | 41.92560 | 8.80353 | 29 ft | 20 kts | 24° |
| 2026-04-20 21:38 | 41.92705 | 8.80440 | 31 ft | 20 kts | 24° |
| 2026-04-20 21:38 | 41.92720 | 8.80449 | 32 ft | 5 kts | 22° |
| 2026-04-20 21:38 | 41.92768 | 8.80423 | 33 ft | 10 kts | 298° |
| 2026-04-20 21:39 | 41.92806 | 8.80323 | 34 ft | 13 kts | 295° |
| 2026-04-20 21:39 | 41.92815 | 8.80208 | 32 ft | 14 kts | 228° |
| 2026-04-20 21:39 | 41.92728 | 8.80125 | 31 ft | 16 kts | 209° |
| 2026-04-20 21:39 | 41.92627 | 8.80062 | 31 ft | 18 kts | 204° |
| 2026-04-20 21:40 | 41.92510 | 8.79988 | 31 ft | 19 kts | 205° |
| 2026-04-20 21:40 | 41.92383 | 8.79910 | 31 ft | 21 kts | 204° |
| 2026-04-20 21:40 | 41.92246 | 8.79826 | 32 ft | 22 kts | 204° |
| 2026-04-20 21:40 | 41.92111 | 8.79737 | 32 ft | 24 kts | 207° |
| 2026-04-20 21:41 | 41.92045 | 8.79698 | 32 ft | 0 kts | 201° |
| 2026-04-20 21:41 | 41.92044 | 8.79697 | 32 ft | 1 kts | 201° |
| 2026-04-20 21:41 | 41.92022 | 8.79684 | 32 ft | 4 kts | 205° |
| 2026-04-20 21:41 | 41.91995 | 8.79667 | 32 ft | 5 kts | 205° |
| 2026-04-20 21:42 | 41.91959 | 8.79644 | 32 ft | 6 kts | 206° |
| 2026-04-20 21:42 | 41.91917 | 8.79618 | 31 ft | 7 kts | 204° |
| 2026-04-20 21:42 | 41.91881 | 8.79579 | 31 ft | 7 kts | 270° |
| 2026-04-20 21:42 | 41.91896 | 8.79548 | 32 ft | 4 kts | 324° |
| 2026-04-20 21:43 | 41.91900 | 8.79546 | 32 ft | 0 kts | 339° |
| 2026-04-20 21:43 | 41.91902 | 8.79545 | 32 ft | 0 kts | 337° |